UNTT 281200Z 31003MPS 9000 -SHSN BKN006CB 00/00 Q1008 R21/////// NOSIG RMK QFE741
QNH:(hPa/inHg/mmHg)1008 / 29.77 / 756
QFE:(hPa/inHg/mmHg)986 / 29.11 / 739
Temperature0
Dew Point0
Visibility9000
WeatherLight Showers Snow
Cloud CoverBKN (600);
Transition Height700 m./2900 ft.
Transition LevelFL50
SQUAWK